sensor_id;sensor_type;location;lat;lon;timestamp;pressure;altitude;pressure_sealevel;temperature;humidity
9110;BME280;4590;51.462;6.692;2022-08-07T00:00:55;102400.84;;;18.83;50.76
9110;BME280;4590;51.462;6.692;2022-08-07T00:03:20;102403.94;;;18.81;51.27
9110;BME280;4590;51.462;6.692;2022-08-07T00:05:48;102405.59;;;18.82;51.54
9110;BME280;4590;51.462;6.692;2022-08-07T00:08:16;102403.44;;;18.79;51.55
9110;BME280;4590;51.462;6.692;2022-08-07T00:10:42;102402.94;;;18.77;51.67
9110;BME280;4590;51.462;6.692;2022-08-07T00:13:07;102400.47;;;18.76;52.01
9110;BME280;4590;51.462;6.692;2022-08-07T00:15:32;102389.81;;;18.78;51.86
9110;BME280;4590;51.462;6.692;2022-08-07T00:17:58;102393.75;;;18.77;52.08
9110;BME280;4590;51.462;6.692;2022-08-07T00:20:23;102388.16;;;18.77;52.27
9110;BME280;4590;51.462;6.692;2022-08-07T00:22:48;102386.53;;;18.76;52.21
9110;BME280;4590;51.462;6.692;2022-08-07T00:25:14;102385.19;;;18.73;52.43
9110;BME280;4590;51.462;6.692;2022-08-07T00:27:40;102389.47;;;18.71;52.74
9110;BME280;4590;51.462;6.692;2022-08-07T00:30:05;102385.88;;;18.70;52.43
9110;BME280;4590;51.462;6.692;2022-08-07T00:32:31;102381.75;;;18.68;52.47
9110;BME280;4590;51.462;6.692;2022-08-07T00:34:56;102374.34;;;18.63;52.67
9110;BME280;4590;51.462;6.692;2022-08-07T00:37:21;102377.44;;;18.62;52.67
9110;BME280;4590;51.462;6.692;2022-08-07T00:39:46;102375.78;;;18.61;52.97
9110;BME280;4590;51.462;6.692;2022-08-07T00:42:12;102387.56;;;18.57;52.75
9110;BME280;4590;51.462;6.692;2022-08-07T00:44:37;102381.50;;;18.55;52.70
9110;BME280;4590;51.462;6.692;2022-08-07T00:47:04;102376.25;;;18.54;52.97
9110;BME280;4590;51.462;6.692;2022-08-07T00:49:30;102373.28;;;18.50;52.93
9110;BME280;4590;51.462;6.692;2022-08-07T00:51:55;102381.13;;;18.48;53.25
9110;BME280;4590;51.462;6.692;2022-08-07T00:54:20;102370.28;;;18.47;53.27
9110;BME280;4590;51.462;6.692;2022-08-07T00:56:46;102372.88;;;18.43;53.34
9110;BME280;4590;51.462;6.692;2022-08-07T00:59:12;102368.47;;;18.42;53.45
9110;BME280;4590;51.462;6.692;2022-08-07T01:01:37;102358.47;;;18.41;53.39
9110;BME280;4590;51.462;6.692;2022-08-07T01:04:07;102359.63;;;18.40;53.46
9110;BME280;4590;51.462;6.692;2022-08-07T01:06:32;102357.16;;;18.39;53.44
9110;BME280;4590;51.462;6.692;2022-08-07T01:08:59;102361.59;;;18.40;53.36
9110;BME280;4590;51.462;6.692;2022-08-07T01:11:25;102355.00;;;18.36;53.68
9110;BME280;4590;51.462;6.692;2022-08-07T01:13:50;102359.25;;;18.33;53.44
9110;BME280;4590;51.462;6.692;2022-08-07T01:16:16;102351.19;;;18.32;52.98
9110;BME280;4590;51.462;6.692;2022-08-07T01:18:41;102351.31;;;18.27;53.17
9110;BME280;4590;51.462;6.692;2022-08-07T01:21:10;102354.47;;;18.25;53.44
9110;BME280;4590;51.462;6.692;2022-08-07T01:23:36;102350.84;;;18.25;53.33
9110;BME280;4590;51.462;6.692;2022-08-07T01:26:04;102350.03;;;18.24;53.75
9110;BME280;4590;51.462;6.692;2022-08-07T01:28:29;102340.03;;;18.23;53.71
9110;BME280;4590;51.462;6.692;2022-08-07T01:30:55;102336.72;;;18.21;53.52
9110;BME280;4590;51.462;6.692;2022-08-07T01:33:21;102338.28;;;18.05;55.60
9110;BME280;4590;51.462;6.692;2022-08-07T01:35:47;102342.75;;;18.14;53.33
9110;BME280;4590;51.462;6.692;2022-08-07T01:38:12;102352.56;;;18.12;53.42
9110;BME280;4590;51.462;6.692;2022-08-07T01:40:38;102340.94;;;18.10;53.79
9110;BME280;4590;51.462;6.692;2022-08-07T01:43:04;102342.06;;;18.09;53.60
9110;BME280;4590;51.462;6.692;2022-08-07T01:45:30;102338.47;;;18.08;53.61
9110;BME280;4590;51.462;6.692;2022-08-07T01:47:57;102340.44;;;18.08;54.02
9110;BME280;4590;51.462;6.692;2022-08-07T01:50:23;102340.75;;;18.06;53.99
9110;BME280;4590;51.462;6.692;2022-08-07T01:52:51;102343.53;;;18.06;54.35
9110;BME280;4590;51.462;6.692;2022-08-07T01:55:19;102348.28;;;18.06;54.27
9110;BME280;4590;51.462;6.692;2022-08-07T01:57:48;102339.41;;;18.04;54.25
9110;BME280;4590;51.462;6.692;2022-08-07T02:00:16;102336.13;;;18.02;54.29
9110;BME280;4590;51.462;6.692;2022-08-07T02:02:57;102336.06;;;17.93;54.70
9110;BME280;4590;51.462;6.692;2022-08-07T02:05:31;102335.25;;;17.93;54.42
9110;BME280;4590;51.462;6.692;2022-08-07T02:08:01;102335.56;;;17.91;54.30
9110;BME280;4590;51.462;6.692;2022-08-07T02:10:28;102325.56;;;17.90;54.46
9110;BME280;4590;51.462;6.692;2022-08-07T02:12:57;102335.38;;;17.87;54.42
9110;BME280;4590;51.462;6.692;2022-08-07T02:15:25;102332.06;;;17.85;54.76
9110;BME280;4590;51.462;6.692;2022-08-07T02:17:52;102339.91;;;17.83;54.67
9110;BME280;4590;51.462;6.692;2022-08-07T02:20:20;102328.28;;;17.81;54.89
9110;BME280;4590;51.462;6.692;2022-08-07T02:22:46;102324.97;;;17.79;54.90
9110;BME280;4590;51.462;6.692;2022-08-07T02:25:14;102316.97;;;17.78;55.14
9110;BME280;4590;51.462;6.692;2022-08-07T02:27:40;102320.06;;;17.76;54.97
9110;BME280;4590;51.462;6.692;2022-08-07T02:30:07;102314.00;;;17.74;55.38
9110;BME280;4590;51.462;6.692;2022-08-07T02:32:33;102321.00;;;17.72;55.66
9110;BME280;4590;51.462;6.692;2022-08-07T02:35:03;102322.47;;;17.69;55.61
9110;BME280;4590;51.462;6.692;2022-08-07T02:37:31;102328.34;;;17.68;55.83
9110;BME280;4590;51.462;6.692;2022-08-07T02:39:57;102321.13;;;17.67;56.13
9110;BME280;4590;51.462;6.692;2022-08-07T02:42:24;102324.22;;;17.65;56.08
9110;BME280;4590;51.462;6.692;2022-08-07T02:44:51;102320.91;;;17.63;56.15
9110;BME280;4590;51.462;6.692;2022-08-07T02:47:17;102311.75;;;17.63;55.70
9110;BME280;4590;51.462;6.692;2022-08-07T02:49:43;102317.63;;;17.61;56.32
9110;BME280;4590;51.462;6.692;2022-08-07T02:52:10;102324.34;;;17.60;56.23
9110;BME280;4590;51.462;6.692;2022-08-07T02:54:40;102319.91;;;17.59;56.25
9110;BME280;4590;51.462;6.692;2022-08-07T02:57:07;102323.00;;;17.58;56.37
9110;BME280;4590;51.462;6.692;2022-08-07T02:59:36;102316.09;;;17.55;56.14
9110;BME280;4590;51.462;6.692;2022-08-07T03:02:02;102315.91;;;17.51;56.33
9110;BME280;4590;51.462;6.692;2022-08-07T03:04:28;102315.69;;;17.48;56.47
9110;BME280;4590;51.462;6.692;2022-08-07T03:06:54;102323.56;;;17.46;56.53
9110;BME280;4590;51.462;6.692;2022-08-07T03:09:20;102311.53;;;17.37;58.03
9110;BME280;4590;51.462;6.692;2022-08-07T03:11:46;102318.13;;;17.41;56.44
9110;BME280;4590;51.462;6.692;2022-08-07T03:14:13;102320.38;;;17.39;56.40
9110;BME280;4590;51.462;6.692;2022-08-07T03:16:39;102318.22;;;17.36;56.58
9110;BME280;4590;51.462;6.692;2022-08-07T03:19:06;102319.66;;;17.33;56.48
9110;BME280;4590;51.462;6.692;2022-08-07T03:21:31;102316.41;;;17.31;56.65
9110;BME280;4590;51.462;6.692;2022-08-07T03:23:57;102324.25;;;17.29;56.61
9110;BME280;4590;51.462;6.692;2022-08-07T03:26:29;102310.94;;;17.26;56.91
9110;BME280;4590;51.462;6.692;2022-08-07T03:28:55;102307.66;;;17.24;56.87
9110;BME280;4590;51.462;6.692;2022-08-07T03:31:24;102309.09;;;17.22;57.04
9110;BME280;4590;51.462;6.692;2022-08-07T03:33:59;102320.34;;;17.16;57.27
9110;BME280;4590;51.462;6.692;2022-08-07T03:36:26;102324.28;;;17.15;57.14
9110;BME280;4590;51.462;6.692;2022-08-07T03:38:56;102315.41;;;17.13;57.25
9110;BME280;4590;51.462;6.692;2022-08-07T03:41:23;102309.34;;;17.11;57.52
9110;BME280;4590;51.462;6.692;2022-08-07T03:43:48;102315.22;;;17.10;57.33
9110;BME280;4590;51.462;6.692;2022-08-07T03:46:14;102307.19;;;17.08;57.17
9110;BME280;4590;51.462;6.692;2022-08-07T03:48:40;102313.88;;;17.07;57.27
9110;BME280;4590;51.462;6.692;2022-08-07T03:51:06;102313.34;;;17.05;57.35
9110;BME280;4590;51.462;6.692;2022-08-07T03:53:32;102314.50;;;17.04;57.32
9110;BME280;4590;51.462;6.692;2022-08-07T03:55:58;102320.38;;;17.03;57.53
9110;BME280;4590;51.462;6.692;2022-08-07T03:58:25;102310.69;;;17.00;57.80
9110;BME280;4590;51.462;6.692;2022-08-07T04:00:52;102317.72;;;16.98;57.57
9110;BME280;4590;51.462;6.692;2022-08-07T04:03:18;102312.47;;;16.96;57.68
9110;BME280;4590;51.462;6.692;2022-08-07T04:05:43;102313.59;;;16.95;57.46
9110;BME280;4590;51.462;6.692;2022-08-07T04:08:10;102306.38;;;16.94;57.74
9110;BME280;4590;51.462;6.692;2022-08-07T04:10:36;102308.66;;;16.92;57.50
9110;BME280;4590;51.462;6.692;2022-08-07T04:13:02;102305.34;;;16.90;57.70
9110;BME280;4590;51.462;6.692;2022-08-07T04:15:28;102308.44;;;16.89;57.26
9110;BME280;4590;51.462;6.692;2022-08-07T04:17:54;102301.53;;;16.86;57.26
9110;BME280;4590;51.462;6.692;2022-08-07T04:20:19;102300.72;;;16.86;57.48
9110;BME280;4590;51.462;6.692;2022-08-07T04:22:45;102302.66;;;16.85;57.52
9110;BME280;4590;51.462;6.692;2022-08-07T04:25:11;102305.44;;;16.85;57.68
9110;BME280;4590;51.462;6.692;2022-08-07T04:27:37;102312.19;;;16.84;57.48
9110;BME280;4590;51.462;6.692;2022-08-07T04:30:03;102302.19;;;16.83;57.48
9110;BME280;4590;51.462;6.692;2022-08-07T04:32:29;102309.69;;;16.82;57.59
9110;BME280;4590;51.462;6.692;2022-08-07T04:34:55;102310.53;;;16.83;57.67
9110;BME280;4590;51.462;6.692;2022-08-07T04:37:20;102308.88;;;16.82;57.61
9110;BME280;4590;51.462;6.692;2022-08-07T04:39:46;102311.66;;;16.82;57.47
9110;BME280;4590;51.462;6.692;2022-08-07T04:42:11;102308.88;;;16.82;57.79
9110;BME280;4590;51.462;6.692;2022-08-07T04:44:37;102314.44;;;16.82;57.25
9110;BME280;4590;51.462;6.692;2022-08-07T04:47:12;102310.09;;;16.76;57.09
9110;BME280;4590;51.462;6.692;2022-08-07T04:49:44;102316.81;;;16.75;56.45
9110;BME280;4590;51.462;6.692;2022-08-07T04:52:30;102305.06;;;16.64;56.31
9110;BME280;4590;51.462;6.692;2022-08-07T04:55:07;102321.44;;;16.66;56.40
9110;BME280;4590;51.462;6.692;2022-08-07T04:57:59;102326.25;;;16.60;56.78
9110;BME280;4590;51.462;6.692;2022-08-07T05:03:43;102330.91;;;16.65;56.99
9110;BME280;4590;51.462;6.692;2022-08-07T05:06:17;102334.59;;;16.74;56.56
9110;BME280;4590;51.462;6.692;2022-08-07T05:08:49;102319.78;;;16.78;56.92
9110;BME280;4590;51.462;6.692;2022-08-07T05:11:24;102320.81;;;16.82;56.83
9110;BME280;4590;51.462;6.692;2022-08-07T05:14:05;102324.91;;;16.85;57.03
9110;BME280;4590;51.462;6.692;2022-08-07T05:16:34;102332.53;;;16.93;57.11
9110;BME280;4590;51.462;6.692;2022-08-07T05:19:07;102335.53;;;16.97;57.01
9110;BME280;4590;51.462;6.692;2022-08-07T05:21:34;102329.84;;;17.02;57.01
9110;BME280;4590;51.462;6.692;2022-08-07T05:24:09;102340.66;;;17.03;56.67
9110;BME280;4590;51.462;6.692;2022-08-07T05:26:36;102339.41;;;17.09;56.34
9110;BME280;4590;51.462;6.692;2022-08-07T05:29:05;102339.94;;;17.11;55.99
9110;BME280;4590;51.462;6.692;2022-08-07T05:31:35;102341.59;;;17.12;55.88
9110;BME280;4590;51.462;6.692;2022-08-07T05:34:05;102354.06;;;17.15;55.59
9110;BME280;4590;51.462;6.692;2022-08-07T05:36:31;102349.78;;;17.17;55.42
9110;BME280;4590;51.462;6.692;2022-08-07T05:38:58;102344.22;;;17.17;55.17
9110;BME280;4590;51.462;6.692;2022-08-07T05:41:24;102342.78;;;17.20;55.12
9110;BME280;4590;51.462;6.692;2022-08-07T05:43:51;102341.97;;;17.19;55.00
9110;BME280;4590;51.462;6.692;2022-08-07T05:46:21;102348.03;;;17.22;54.95
9110;BME280;4590;51.462;6.692;2022-08-07T05:48:51;102350.19;;;17.25;55.14
9110;BME280;4590;51.462;6.692;2022-08-07T05:51:17;102350.09;;;17.30;54.81
9110;BME280;4590;51.462;6.692;2022-08-07T05:53:43;102349.13;;;17.34;55.30
9110;BME280;4590;51.462;6.692;2022-08-07T05:56:08;102348.72;;;17.41;54.83
9110;BME280;4590;51.462;6.692;2022-08-07T05:58:36;102350.25;;;17.47;54.93
9110;BME280;4590;51.462;6.692;2022-08-07T06:01:04;102345.56;;;17.56;54.61
9110;BME280;4590;51.462;6.692;2022-08-07T06:03:31;102351.50;;;17.63;54.67
9110;BME280;4590;51.462;6.692;2022-08-07T06:05:57;102345.63;;;17.78;54.49
9110;BME280;4590;51.462;6.692;2022-08-07T06:08:24;102339.34;;;17.95;54.19
9110;BME280;4590;51.462;6.692;2022-08-07T06:10:50;102351.09;;;18.14;54.36
9110;BME280;4590;51.462;6.692;2022-08-07T06:13:16;102354.69;;;18.37;53.99
9110;BME280;4590;51.462;6.692;2022-08-07T06:15:42;102355.47;;;18.60;53.58
9110;BME280;4590;51.462;6.692;2022-08-07T06:18:10;102351.78;;;18.82;52.94
9110;BME280;4590;51.462;6.692;2022-08-07T06:20:36;102348.53;;;19.06;52.16
9110;BME280;4590;51.462;6.692;2022-08-07T06:23:03;102348.75;;;19.18;50.23
9110;BME280;4590;51.462;6.692;2022-08-07T06:25:29;102350.09;;;19.55;52.06
9110;BME280;4590;51.462;6.692;2022-08-07T06:28:06;102354.06;;;19.80;51.34
9110;BME280;4590;51.462;6.692;2022-08-07T06:30:32;102353.56;;;19.95;50.00
9110;BME280;4590;51.462;6.692;2022-08-07T06:32:58;102351.16;;;20.31;50.57
9110;BME280;4590;51.462;6.692;2022-08-07T06:35:24;102346.16;;;20.54;49.73
9110;BME280;4590;51.462;6.692;2022-08-07T06:37:49;102344.06;;;20.81;49.59
9110;BME280;4590;51.462;6.692;2022-08-07T06:40:15;102344.28;;;21.05;49.91
9110;BME280;4590;51.462;6.692;2022-08-07T06:42:41;102343.28;;;21.30;49.26
9110;BME280;4590;51.462;6.692;2022-08-07T06:45:15;102343.44;;;21.55;49.61
9110;BME280;4590;51.462;6.692;2022-08-07T06:47:41;102340.06;;;21.82;49.15
9110;BME280;4590;51.462;6.692;2022-08-07T06:50:07;102340.06;;;22.03;47.45
9110;BME280;4590;51.462;6.692;2022-08-07T06:52:35;102339.41;;;22.18;46.19
9110;BME280;4590;51.462;6.692;2022-08-07T06:55:03;102342.34;;;22.34;45.83
9110;BME280;4590;51.462;6.692;2022-08-07T06:57:30;102342.84;;;22.48;45.35
9110;BME280;4590;51.462;6.692;2022-08-07T06:59:58;102340.50;;;22.62;44.72
9110;BME280;4590;51.462;6.692;2022-08-07T07:02:25;102341.13;;;22.80;44.69
9110;BME280;4590;51.462;6.692;2022-08-07T07:04:51;102332.09;;;22.99;44.17
9110;BME280;4590;51.462;6.692;2022-08-07T07:07:17;102330.22;;;23.03;42.93
9110;BME280;4590;51.462;6.692;2022-08-07T07:09:44;102337.53;;;23.32;44.05
9110;BME280;4590;51.462;6.692;2022-08-07T07:12:21;102353.06;;;23.54;42.71
9110;BME280;4590;51.462;6.692;2022-08-07T07:15:13;102343.66;;;23.74;41.29
9110;BME280;4590;51.462;6.692;2022-08-07T07:18:16;102339.53;;;23.99;40.95
9110;BME280;4590;51.462;6.692;2022-08-07T07:21:05;102328.63;;;24.26;40.74
9110;BME280;4590;51.462;6.692;2022-08-07T07:23:32;102338.53;;;24.51;40.81
9110;BME280;4590;51.462;6.692;2022-08-07T07:26:01;102335.72;;;24.67;40.42
9110;BME280;4590;51.462;6.692;2022-08-07T07:28:51;102327.63;;;24.65;35.24
9110;BME280;4590;51.462;6.692;2022-08-07T07:31:23;102323.41;;;24.91;38.47
9110;BME280;4590;51.462;6.692;2022-08-07T07:33:53;102329.41;;;25.05;38.76
9110;BME280;4590;51.462;6.692;2022-08-07T07:36:21;102326.28;;;25.26;38.56
9110;BME280;4590;51.462;6.692;2022-08-07T07:38:48;102324.28;;;25.45;37.90
9110;BME280;4590;51.462;6.692;2022-08-07T07:41:16;102323.50;;;25.64;37.43
9110;BME280;4590;51.462;6.692;2022-08-07T07:43:43;102327.56;;;25.86;36.88
9110;BME280;4590;51.462;6.692;2022-08-07T07:46:12;102326.78;;;26.08;36.37
9110;BME280;4590;51.462;6.692;2022-08-07T07:48:38;102321.56;;;26.30;35.98
9110;BME280;4590;51.462;6.692;2022-08-07T07:51:06;102321.56;;;26.52;35.33
9110;BME280;4590;51.462;6.692;2022-08-07T07:53:33;102330.31;;;26.70;35.75
9110;BME280;4590;51.462;6.692;2022-08-07T07:55:59;102318.06;;;26.85;35.22
9110;BME280;4590;51.462;6.692;2022-08-07T07:58:29;102318.78;;;27.05;34.38
9110;BME280;4590;51.462;6.692;2022-08-07T08:00:56;102313.84;;;27.29;34.88
9110;BME280;4590;51.462;6.692;2022-08-07T08:03:22;102321.81;;;27.49;34.57
9110;BME280;4590;51.462;6.692;2022-08-07T08:05:49;102321.63;;;27.65;34.37
9110;BME280;4590;51.462;6.692;2022-08-07T08:08:15;102321.47;;;27.84;34.03
9110;BME280;4590;51.462;6.692;2022-08-07T08:10:41;102320.03;;;28.01;33.44
9110;BME280;4590;51.462;6.692;2022-08-07T08:13:08;102325.03;;;28.15;32.87
9110;BME280;4590;51.462;6.692;2022-08-07T08:15:38;102313.06;;;28.28;31.95
9110;BME280;4590;51.462;6.692;2022-08-07T08:18:09;102322.44;;;28.40;31.74
9110;BME280;4590;51.462;6.692;2022-08-07T08:20:37;102314.03;;;28.50;31.52
9110;BME280;4590;51.462;6.692;2022-08-07T08:23:03;102309.28;;;28.65;31.05
9110;BME280;4590;51.462;6.692;2022-08-07T08:25:49;102313.34;;;28.64;29.96
9110;BME280;4590;51.462;6.692;2022-08-07T08:28:37;102298.22;;;28.93;30.80
9110;BME280;4590;51.462;6.692;2022-08-07T08:31:11;102311.25;;;29.12;30.60
9110;BME280;4590;51.462;6.692;2022-08-07T08:33:39;102307.72;;;29.26;29.44
9110;BME280;4590;51.462;6.692;2022-08-07T08:36:07;102302.06;;;29.33;28.74
9110;BME280;4590;51.462;6.692;2022-08-07T08:38:37;102293.63;;;29.44;29.13
9110;BME280;4590;51.462;6.692;2022-08-07T08:44:24;102292.91;;;29.75;27.02
9110;BME280;4590;51.462;6.692;2022-08-07T08:47:06;102277.56;;;29.90;28.11
9110;BME280;4590;51.462;6.692;2022-08-07T08:49:48;102291.00;;;30.00;26.06
9110;BME280;4590;51.462;6.692;2022-08-07T08:54:59;102285.75;;;30.20;26.10
9110;BME280;4590;51.462;6.692;2022-08-07T08:57:33;102288.19;;;30.32;26.16
9110;BME280;4590;51.462;6.692;2022-08-07T09:00:07;102286.97;;;30.44;26.39
9110;BME280;4590;51.462;6.692;2022-08-07T09:02:57;102284.13;;;30.44;24.74
9110;BME280;4590;51.462;6.692;2022-08-07T09:06:03;102290.63;;;30.48;22.28
9110;BME280;4590;51.462;6.692;2022-08-07T09:08:40;102292.66;;;30.58;25.12
9110;BME280;4590;51.462;6.692;2022-08-07T09:11:40;102284.16;;;30.65;23.61
9110;BME280;4590;51.462;6.692;2022-08-07T09:14:13;102288.16;;;30.86;25.06
9110;BME280;4590;51.462;6.692;2022-08-07T09:16:49;102298.69;;;30.96;24.10
9110;BME280;4590;51.462;6.692;2022-08-07T09:22:40;102284.53;;;30.75;22.47
9110;BME280;4590;51.462;6.692;2022-08-07T09:30:17;102275.56;;;30.94;23.78
9110;BME280;4590;51.462;6.692;2022-08-07T09:35:43;102283.59;;;31.31;22.39
9110;BME280;4590;51.462;6.692;2022-08-07T09:38:48;102270.06;;;31.56;22.65
9110;BME280;4590;51.462;6.692;2022-08-07T09:41:42;102283.00;;;31.64;21.61
9110;BME280;4590;51.462;6.692;2022-08-07T09:44:38;102285.03;;;31.71;22.04
9110;BME280;4590;51.462;6.692;2022-08-07T09:52:49;102266.03;;;32.13;22.15
9110;BME280;4590;51.462;6.692;2022-08-07T09:55:28;102267.56;;;32.28;22.48
9110;BME280;4590;51.462;6.692;2022-08-07T09:58:18;102258.19;;;32.31;21.23
9110;BME280;4590;51.462;6.692;2022-08-07T10:03:47;102250.81;;;32.40;20.73
9110;BME280;4590;51.462;6.692;2022-08-07T10:14:40;102239.69;;;32.91;22.32
9110;BME280;4590;51.462;6.692;2022-08-07T10:33:47;102226.22;;;32.57;21.88
9110;BME280;4590;51.462;6.692;2022-08-07T10:36:51;102222.31;;;32.40;20.86
9110;BME280;4590;51.462;6.692;2022-08-07T10:39:28;102218.25;;;32.38;21.59
9110;BME280;4590;51.462;6.692;2022-08-07T10:42:08;102220.41;;;32.27;21.04
9110;BME280;4590;51.462;6.692;2022-08-07T10:45:41;102224.13;;;32.20;21.99
9110;BME280;4590;51.462;6.692;2022-08-07T10:48:00;102213.50;;;32.24;21.91
9110;BME280;4590;51.462;6.692;2022-08-07T10:50:38;102215.06;;;32.29;21.65
9110;BME280;4590;51.462;6.692;2022-08-07T10:53:16;102208.53;;;32.32;21.47
9110;BME280;4590;51.462;6.692;2022-08-07T10:55:52;102208.22;;;32.26;21.00
9110;BME280;4590;51.462;6.692;2022-08-07T10:58:38;102196.81;;;32.26;21.29
9110;BME280;4590;51.462;6.692;2022-08-07T11:03:41;102194.28;;;32.35;21.42
9110;BME280;4590;51.462;6.692;2022-08-07T11:06:18;102193.88;;;32.33;21.97
9110;BME280;4590;51.462;6.692;2022-08-07T11:08:52;102194.41;;;32.18;20.80
9110;BME280;4590;51.462;6.692;2022-08-07T11:13:53;102185.22;;;31.99;21.72
9110;BME280;4590;51.462;6.692;2022-08-07T11:16:26;102172.31;;;31.88;21.55
9110;BME280;4590;51.462;6.692;2022-08-07T11:18:57;102172.69;;;31.90;21.85
9110;BME280;4590;51.462;6.692;2022-08-07T11:21:30;102175.53;;;31.90;21.66
9110;BME280;4590;51.462;6.692;2022-08-07T11:24:23;102182.09;;;31.83;21.46
9110;BME280;4590;51.462;6.692;2022-08-07T11:27:08;102170.41;;;31.67;21.50
9110;BME280;4590;51.462;6.692;2022-08-07T11:29:44;102165.69;;;31.46;20.78
9110;BME280;4590;51.462;6.692;2022-08-07T11:32:21;102166.63;;;31.22;21.41
9110;BME280;4590;51.462;6.692;2022-08-07T11:34:56;102161.78;;;31.08;22.19
9110;BME280;4590;51.462;6.692;2022-08-07T11:37:46;102163.09;;;30.93;22.12
9110;BME280;4590;51.462;6.692;2022-08-07T11:40:45;102166.44;;;30.63;21.74
9110;BME280;4590;51.462;6.692;2022-08-07T11:43:30;102159.56;;;30.57;22.04
9110;BME280;4590;51.462;6.692;2022-08-07T11:46:26;102155.91;;;30.49;22.15
9110;BME280;4590;51.462;6.692;2022-08-07T12:05:33;102145.03;;;29.98;22.63
9110;BME280;4590;51.462;6.692;2022-08-07T12:08:10;102142.16;;;29.91;22.54
9110;BME280;4590;51.462;6.692;2022-08-07T12:10:47;102139.72;;;29.82;23.32
9110;BME280;4590;51.462;6.692;2022-08-07T12:13:34;102142.97;;;29.77;23.72
9110;BME280;4590;51.462;6.692;2022-08-07T12:16:08;102139.34;;;29.73;23.65
9110;BME280;4590;51.462;6.692;2022-08-07T12:18:56;102137.69;;;29.61;23.44
9110;BME280;4590;51.462;6.692;2022-08-07T12:21:39;102129.16;;;29.61;23.49
9110;BME280;4590;51.462;6.692;2022-08-07T12:27:01;102128.38;;;29.50;23.10
9110;BME280;4590;51.462;6.692;2022-08-07T12:29:34;102122.66;;;29.36;22.77
9110;BME280;4590;51.462;6.692;2022-08-07T12:32:16;102125.84;;;29.17;24.10
9110;BME280;4590;51.462;6.692;2022-08-07T12:34:45;102124.22;;;29.16;23.50
9110;BME280;4590;51.462;6.692;2022-08-07T12:37:12;102125.81;;;29.06;24.09
9110;BME280;4590;51.462;6.692;2022-08-07T12:39:40;102128.63;;;29.03;23.65
9110;BME280;4590;51.462;6.692;2022-08-07T12:42:07;102121.72;;;28.93;24.20
9110;BME280;4590;51.462;6.692;2022-08-07T12:44:34;102119.28;;;28.91;23.91
9110;BME280;4590;51.462;6.692;2022-08-07T12:49:51;102116.41;;;28.81;24.30
9110;BME280;4590;51.462;6.692;2022-08-07T12:52:26;102113.53;;;28.74;23.67
9110;BME280;4590;51.462;6.692;2022-08-07T12:54:58;102111.47;;;28.63;24.10
9110;BME280;4590;51.462;6.692;2022-08-07T12:57:31;102112.22;;;28.57;24.84
9110;BME280;4590;51.462;6.692;2022-08-07T12:59:59;102107.78;;;28.56;24.73
9110;BME280;4590;51.462;6.692;2022-08-07T13:05:44;102109.72;;;28.41;25.13
9110;BME280;4590;51.462;6.692;2022-08-07T13:08:28;102102.44;;;28.40;24.98
9110;BME280;4590;51.462;6.692;2022-08-07T13:16:54;102101.91;;;28.20;24.67
9110;BME280;4590;51.462;6.692;2022-08-07T13:22:12;102092.09;;;28.07;25.24
9110;BME280;4590;51.462;6.692;2022-08-07T13:24:46;102098.09;;;27.99;25.89
9110;BME280;4590;51.462;6.692;2022-08-07T13:27:17;102103.31;;;27.93;25.63
9110;BME280;4590;51.462;6.692;2022-08-07T13:30:00;102100.41;;;27.82;26.30
9110;BME280;4590;51.462;6.692;2022-08-07T13:35:38;102089.06;;;27.79;26.24
9110;BME280;4590;51.462;6.692;2022-08-07T13:38:15;102085.38;;;27.75;26.50
9110;BME280;4590;51.462;6.692;2022-08-07T13:41:05;102083.34;;;27.72;27.22
9110;BME280;4590;51.462;6.692;2022-08-07T13:43:41;102083.78;;;27.77;26.23
9110;BME280;4590;51.462;6.692;2022-08-07T13:46:07;102081.38;;;27.79;26.81
9110;BME280;4590;51.462;6.692;2022-08-07T13:48:36;102079.78;;;27.82;25.81
9110;BME280;4590;51.462;6.692;2022-08-07T13:51:04;102073.28;;;27.78;26.27
9110;BME280;4590;51.462;6.692;2022-08-07T13:53:34;102070.81;;;27.73;26.04
9110;BME280;4590;51.462;6.692;2022-08-07T13:56:02;102073.22;;;27.67;26.03
9110;BME280;4590;51.462;6.692;2022-08-07T13:58:29;102071.53;;;27.59;26.65
9110;BME280;4590;51.462;6.692;2022-08-07T14:01:17;102060.53;;;27.50;26.32
9110;BME280;4590;51.462;6.692;2022-08-07T14:03:43;102065.72;;;27.45;26.50
9110;BME280;4590;51.462;6.692;2022-08-07T14:06:10;102061.69;;;27.46;26.85
9110;BME280;4590;51.462;6.692;2022-08-07T14:08:44;102058.81;;;27.39;26.67
9110;BME280;4590;51.462;6.692;2022-08-07T14:11:14;102066.06;;;27.40;26.81
9110;BME280;4590;51.462;6.692;2022-08-07T14:13:40;102063.66;;;27.38;26.92
9110;BME280;4590;51.462;6.692;2022-08-07T14:16:10;102058.78;;;27.35;26.80
9110;BME280;4590;51.462;6.692;2022-08-07T14:18:50;102059.13;;;27.30;27.88
9110;BME280;4590;51.462;6.692;2022-08-07T14:21:28;102057.16;;;27.34;27.52
9110;BME280;4590;51.462;6.692;2022-08-07T14:24:18;102054.31;;;27.34;27.26
9110;BME280;4590;51.462;6.692;2022-08-07T14:26:49;102047.09;;;27.40;26.90
9110;BME280;4590;51.462;6.692;2022-08-07T14:29:18;102046.28;;;27.40;26.58
9110;BME280;4590;51.462;6.692;2022-08-07T14:31:46;102049.91;;;27.40;26.75
9110;BME280;4590;51.462;6.692;2022-08-07T14:34:14;102042.63;;;27.36;26.85
9110;BME280;4590;51.462;6.692;2022-08-07T14:36:41;102038.13;;;27.31;26.98
9110;BME280;4590;51.462;6.692;2022-08-07T14:39:08;102042.94;;;27.27;27.02
9110;BME280;4590;51.462;6.692;2022-08-07T14:41:35;102050.59;;;27.23;27.16
9110;BME280;4590;51.462;6.692;2022-08-07T14:44:03;102040.84;;;27.17;27.67
9110;BME280;4590;51.462;6.692;2022-08-07T14:46:33;102039.63;;;27.18;27.75
9110;BME280;4590;51.462;6.692;2022-08-07T14:49:00;102038.00;;;27.17;27.55
9110;BME280;4590;51.462;6.692;2022-08-07T14:51:26;102037.63;;;27.18;28.11
9110;BME280;4590;51.462;6.692;2022-08-07T14:53:54;102031.16;;;27.18;27.49
9110;BME280;4590;51.462;6.692;2022-08-07T14:56:22;102033.97;;;27.18;27.69
9110;BME280;4590;51.462;6.692;2022-08-07T14:58:53;102029.06;;;27.11;27.57
9110;BME280;4590;51.462;6.692;2022-08-07T15:01:22;102026.63;;;27.10;27.48
9110;BME280;4590;51.462;6.692;2022-08-07T15:03:50;102028.25;;;27.11;27.72
9110;BME280;4590;51.462;6.692;2022-08-07T15:06:22;102020.97;;;27.10;28.04